Kelly — WCX5127 — position and weather

sailwx.info

Track history (hours):
 
Tides and Currents Weather Stations Pressure Air Temp Water Temp Dewpoint Dewpoint Depression Visibility Wind Speed Wind Dir Waves Ship Positions

Kelly

Owner: INTERNATIONAL CARGO AND SHIP CHARTERING, San Antonio, FL. More information available from US FCC via Universal Licensing System and Coast Guard Vessel Documentation Center.

Last reported at 2017-Nov-14 23:00 UTC. Time now 2017-Nov-20 02:20 UTC.
Position N 27°42' W 082°33'.

Length 158 m; draft 5.4 m.

MMSI: 303606000.

Date/timePositionNaut miles runAvg speedWind from/ knotsBaromVisibWave heightAir tempDewpointWater temp
2017-Nov-14 23:00N 27°42' W 082°33'5 9.6
2017-Nov-14 22:30N 27°46' W 082°31'5 9.1
2017-Nov-14 22:00N 27°49' W 082°27'5 9.7
2017-Nov-14 21:31N 27°53' W 082°26'3 5.8
2017-Nov-14 21:01N 27°56' W 082°27'1 1.6
2017-Nov-14 20:28N 27°57' W 082°27'0 0.1
2017-Nov-14 19:58N 27°57' W 082°27'0 0.0
2017-Nov-14 19:28N 27°57' W 082°27'0 0.0
2017-Nov-14 18:58N 27°57' W 082°27'0 0.0
2017-Nov-14 18:28N 27°57' W 082°27'0 0.0
2017-Nov-14 17:58N 27°57' W 082°27'0 0.0
2017-Nov-14 17:28N 27°57' W 082°27'0 0.0
2017-Nov-14 16:58N 27°57' W 082°27'0 0.0
2017-Nov-14 16:28N 27°57' W 082°27'0 0.0
2017-Nov-14 15:58N 27°57' W 082°27'0 0.0
2017-Nov-14 15:29N 27°57' W 082°27'0 0.0
2017-Nov-14 14:59N 27°57' W 082°27'0 0.0
2017-Nov-14 14:29N 27°57' W 082°27'0 0.0
2017-Nov-14 13:59N 27°57' W 082°27'0 0.0
2017-Nov-14 13:29N 27°57' W 082°27'0 0.0
2017-Nov-14 12:59N 27°57' W 082°27'0 0.0
2017-Nov-14 12:29N 27°57' W 082°27'0 0.0
2017-Nov-14 11:59N 27°57' W 082°27'0 0.0
2017-Nov-14 11:29N 27°57' W 082°27'0 0.0
2017-Nov-14 10:59N 27°57' W 082°27'0 0.0
2017-Nov-14 10:29N 27°57' W 082°27'0 0.0
2017-Nov-14 09:59N 27°57' W 082°27'0 0.0
2017-Nov-14 09:29N 27°57' W 082°27'0 0.0
2017-Nov-14 08:59N 27°57' W 082°27'0 0.0
2017-Nov-14 08:29N 27°57' W 082°27'0 0.0
2017-Nov-14 07:59N 27°57' W 082°27'0 0.0
2017-Nov-14 07:29N 27°57' W 082°27'0 0.0
2017-Nov-14 06:59N 27°57' W 082°27'0 0.0
2017-Nov-14 06:29N 27°57' W 082°27'0 0.0
2017-Nov-14 05:59N 27°57' W 082°27'0 0.0
2017-Nov-14 05:29N 27°57' W 082°27'0 0.0
2017-Nov-14 04:59N 27°57' W 082°27'0 0.0
2017-Nov-14 04:29N 27°57' W 082°27'0 0.0
2017-Nov-14 03:59N 27°57' W 082°27'0 0.0
2017-Nov-14 03:29N 27°57' W 082°27'0 0.0
2017-Nov-14 02:59N 27°57' W 082°27'0 0.0
2017-Nov-14 02:29N 27°57' W 082°27'0 0.0
2017-Nov-14 01:59N 27°57' W 082°27'0 0.0
2017-Nov-14 01:29N 27°57' W 082°27'0 0.0
2017-Nov-14 00:59N 27°57' W 082°27'0 0.0
2017-Nov-14 00:29N 27°57' W 082°27'0 0.0
2017-Nov-13 23:59N 27°57' W 082°27'0 0.0
2017-Nov-13 23:28N 27°57' W 082°27'0 0.0
2017-Nov-13 22:58N 27°57' W 082°27'0 0.0
2017-Nov-13 22:28N 27°57' W 082°27'0 0.0
2017-Nov-13 21:58N 27°57' W 082°27'0 0.0
2017-Nov-13 02:00N 27°57' W 082°27'0 0.0
2017-Nov-13 01:30N 27°57' W 082°27'0 0.0
2017-Nov-13 01:00N 27°57' W 082°27'0 0.0
2017-Nov-13 00:30N 27°57' W 082°27'0 0.0
2017-Nov-13 00:00N 27°57' W 082°27'0 0.0
2017-Nov-12 23:30N 27°57' W 082°27'0 0.0
2017-Nov-12 23:00N 27°57' W 082°27'0 0.0
2017-Nov-12 22:29N 27°57' W 082°27'0 0.0
2017-Nov-12 21:59N 27°57' W 082°27'0 0.0
2017-Nov-12 21:29N 27°57' W 082°27'0 0.0
2017-Nov-12 20:59N 27°57' W 082°27'0 0.0
2017-Nov-12 20:29N 27°57' W 082°27'0 0.0
2017-Nov-12 19:59N 27°57' W 082°27'0 0.0
2017-Nov-12 19:29N 27°57' W 082°27'0 0.0
2017-Nov-12 18:59N 27°57' W 082°27'0 0.0
2017-Nov-12 18:29N 27°57' W 082°27'0 0.0
2017-Nov-12 17:59N 27°57' W 082°27'0 0.0
2017-Nov-12 17:29N 27°57' W 082°27'0 0.0
2017-Nov-12 17:00N 27°57' W 082°27'1 1.6
2017-Nov-12 16:30N 27°56' W 082°27'2 4.1
2017-Nov-12 16:01N 27°54' W 082°26'1 1.9
2017-Nov-12 15:30N 27°54' W 082°25'1 1.0
2017-Nov-12 14:58N 27°54' W 082°25'0 0.0
2017-Nov-12 14:28N 27°54' W 082°25'0 0.0
2017-Nov-12 13:58N 27°54' W 082°25'0 0.0
2017-Nov-12 13:28N 27°54' W 082°25'0 0.0
2017-Nov-12 12:58N 27°54' W 082°25'0 0.0
2017-Nov-12 12:28N 27°54' W 082°25'0 0.0
2017-Nov-12 11:58N 27°54' W 082°25'0 0.0
2017-Nov-12 11:28N 27°54' W 082°25'0 0.0
2017-Nov-12 10:58N 27°54' W 082°25'0 0.0
2017-Nov-12 10:28N 27°54' W 082°25'0 0.0
2017-Nov-12 09:58N 27°54' W 082°25'0 0.0
2017-Nov-12 09:28N 27°54' W 082°25'0 0.0
2017-Nov-12 08:58N 27°54' W 082°25'0 0.0
2017-Nov-12 08:28N 27°54' W 082°25'0 0.0
2017-Nov-12 07:58N 27°54' W 082°25'0 0.0
2017-Nov-12 07:28N 27°54' W 082°25'0 0.0
2017-Nov-12 06:58N 27°54' W 082°25'0 0.0
2017-Nov-12 06:28N 27°54' W 082°25'0 0.0
2017-Nov-12 05:58N 27°54' W 082°25'0 0.0
2017-Nov-12 05:28N 27°54' W 082°25'0 0.0
2017-Nov-12 04:58N 27°54' W 082°25'0 0.0
2017-Nov-12 04:28N 27°54' W 082°25'0 0.0
2017-Nov-12 03:58N 27°54' W 082°25'0 0.0
2017-Nov-12 03:28N 27°54' W 082°25'0 0.0
2017-Nov-12 02:58N 27°54' W 082°25'0 0.0
2017-Nov-12 02:28N 27°54' W 082°25'0 0.0
2017-Nov-12 01:58N 27°54' W 082°25'0 0.0
2017-Nov-12 01:28N 27°54' W 082°25'0 0.0
2017-Nov-12 00:58N 27°54' W 082°25'0 0.0
2017-Nov-12 00:28N 27°54' W 082°25'0 0.0
2017-Nov-11 23:58N 27°54' W 082°25'0 0.0
2017-Nov-11 23:30N 27°54' W 082°25'1 1.7
2017-Nov-11 23:00N 27°54' W 082°26'1 2.3
2017-Nov-11 22:30N 27°55' W 082°27'2 3.1
2017-Nov-11 22:00N 27°57' W 082°27'0 0.2
2017-Nov-11 21:30N 27°57' W 082°27'0 0.0
2017-Nov-11 20:58N 27°57' W 082°27'0 0.0
2017-Nov-11 20:28N 27°57' W 082°27'0 0.0
2017-Nov-11 19:58N 27°57' W 082°27'0 0.0
2017-Nov-11 19:28N 27°57' W 082°27'0 0.0
2017-Nov-11 18:58N 27°57' W 082°27'0 0.0
2017-Nov-11 18:31N 27°57' W 082°27'0 0.6
2017-Nov-11 18:01N 27°56' W 082°27'2 3.8
2017-Nov-11 17:31N 27°54' W 082°26'4 7.1
2017-Nov-11 17:01N 27°51' W 082°27'4 7.2
2017-Nov-11 16:30N 27°48' W 082°29'4 7.0
2017-Nov-11 16:01N 27°45' W 082°31'  
2017-Nov-07 10:05N 29°09' W 094°22'2 7.4
2017-Nov-07 09:51N 29°08' W 094°20'  
Track history (hours):
 
Tides and Currents Weather Stations Pressure Air Temp Water Temp Dewpoint Dewpoint Depression Visibility Wind Speed Wind Dir Waves Ship Positions

Kelly

Owner: INTERNATIONAL CARGO AND SHIP CHARTERING, San Antonio, FL. More information available from US FCC via Universal Licensing System and Coast Guard Vessel Documentation Center.

Last reported at 2017-Nov-14 23:00 UTC. Time now 2017-Nov-20 02:20 UTC.
Position N 27°42' W 082°33'.

Length 158 m; draft 5.4 m.

MMSI: 303606000.

Date/timePositionNaut miles runAvg speedWind from/ knotsBaromVisibWave heightAir tempDewpointWater temp
2017-Nov-14 23:00N 27°42' W 082°33'5 9.6
2017-Nov-14 22:30N 27°46' W 082°31'5 9.1
2017-Nov-14 22:00N 27°49' W 082°27'5 9.7
2017-Nov-14 21:31N 27°53' W 082°26'3 5.8
2017-Nov-14 21:01N 27°56' W 082°27'1 1.6
2017-Nov-14 20:28N 27°57' W 082°27'0 0.1
2017-Nov-14 19:58N 27°57' W 082°27'0 0.0
2017-Nov-14 19:28N 27°57' W 082°27'0 0.0
2017-Nov-14 18:58N 27°57' W 082°27'0 0.0
2017-Nov-14 18:28N 27°57' W 082°27'0 0.0
2017-Nov-14 17:58N 27°57' W 082°27'0 0.0
2017-Nov-14 17:28N 27°57' W 082°27'0 0.0
2017-Nov-14 16:58N 27°57' W 082°27'0 0.0
2017-Nov-14 16:28N 27°57' W 082°27'0 0.0
2017-Nov-14 15:58N 27°57' W 082°27'0 0.0
2017-Nov-14 15:29N 27°57' W 082°27'0 0.0
2017-Nov-14 14:59N 27°57' W 082°27'0 0.0
2017-Nov-14 14:29N 27°57' W 082°27'0 0.0
2017-Nov-14 13:59N 27°57' W 082°27'0 0.0
2017-Nov-14 13:29N 27°57' W 082°27'0 0.0
2017-Nov-14 12:59N 27°57' W 082°27'0 0.0
2017-Nov-14 12:29N 27°57' W 082°27'0 0.0
2017-Nov-14 11:59N 27°57' W 082°27'0 0.0
2017-Nov-14 11:29N 27°57' W 082°27'0 0.0
2017-Nov-14 10:59N 27°57' W 082°27'0 0.0
2017-Nov-14 10:29N 27°57' W 082°27'0 0.0
2017-Nov-14 09:59N 27°57' W 082°27'0 0.0
2017-Nov-14 09:29N 27°57' W 082°27'0 0.0
2017-Nov-14 08:59N 27°57' W 082°27'0 0.0
2017-Nov-14 08:29N 27°57' W 082°27'0 0.0
2017-Nov-14 07:59N 27°57' W 082°27'0 0.0
2017-Nov-14 07:29N 27°57' W 082°27'0 0.0
2017-Nov-14 06:59N 27°57' W 082°27'0 0.0
2017-Nov-14 06:29N 27°57' W 082°27'0 0.0
2017-Nov-14 05:59N 27°57' W 082°27'0 0.0
2017-Nov-14 05:29N 27°57' W 082°27'0 0.0
2017-Nov-14 04:59N 27°57' W 082°27'0 0.0
2017-Nov-14 04:29N 27°57' W 082°27'0 0.0
2017-Nov-14 03:59N 27°57' W 082°27'0 0.0
2017-Nov-14 03:29N 27°57' W 082°27'0 0.0
2017-Nov-14 02:59N 27°57' W 082°27'0 0.0
2017-Nov-14 02:29N 27°57' W 082°27'0 0.0
2017-Nov-14 01:59N 27°57' W 082°27'0 0.0
2017-Nov-14 01:29N 27°57' W 082°27'0 0.0
2017-Nov-14 00:59N 27°57' W 082°27'0 0.0
2017-Nov-14 00:29N 27°57' W 082°27'0 0.0
2017-Nov-13 23:59N 27°57' W 082°27'0 0.0
2017-Nov-13 23:28N 27°57' W 082°27'0 0.0
2017-Nov-13 22:58N 27°57' W 082°27'0 0.0
2017-Nov-13 22:28N 27°57' W 082°27'0 0.0
2017-Nov-13 21:58N 27°57' W 082°27'0 0.0
2017-Nov-13 02:00N 27°57' W 082°27'0 0.0
2017-Nov-13 01:30N 27°57' W 082°27'0 0.0
2017-Nov-13 01:00N 27°57' W 082°27'0 0.0
2017-Nov-13 00:30N 27°57' W 082°27'0 0.0
2017-Nov-13 00:00N 27°57' W 082°27'0 0.0
2017-Nov-12 23:30N 27°57' W 082°27'0 0.0
2017-Nov-12 23:00N 27°57' W 082°27'0 0.0
2017-Nov-12 22:29N 27°57' W 082°27'0 0.0
2017-Nov-12 21:59N 27°57' W 082°27'0 0.0
2017-Nov-12 21:29N 27°57' W 082°27'0 0.0
2017-Nov-12 20:59N 27°57' W 082°27'0 0.0
2017-Nov-12 20:29N 27°57' W 082°27'0 0.0
2017-Nov-12 19:59N 27°57' W 082°27'0 0.0
2017-Nov-12 19:29N 27°57' W 082°27'0 0.0
2017-Nov-12 18:59N 27°57' W 082°27'0 0.0
2017-Nov-12 18:29N 27°57' W 082°27'0 0.0
2017-Nov-12 17:59N 27°57' W 082°27'0 0.0
2017-Nov-12 17:29N 27°57' W 082°27'0 0.0
2017-Nov-12 17:00N 27°57' W 082°27'1 1.6
2017-Nov-12 16:30N 27°56' W 082°27'2 4.1
2017-Nov-12 16:01N 27°54' W 082°26'1 1.9
2017-Nov-12 15:30N 27°54' W 082°25'1 1.0
2017-Nov-12 14:58N 27°54' W 082°25'0 0.0
2017-Nov-12 14:28N 27°54' W 082°25'0 0.0
2017-Nov-12 13:58N 27°54' W 082°25'0 0.0
2017-Nov-12 13:28N 27°54' W 082°25'0 0.0
2017-Nov-12 12:58N 27°54' W 082°25'0 0.0
2017-Nov-12 12:28N 27°54' W 082°25'0 0.0
2017-Nov-12 11:58N 27°54' W 082°25'0 0.0
2017-Nov-12 11:28N 27°54' W 082°25'0 0.0
2017-Nov-12 10:58N 27°54' W 082°25'0 0.0
2017-Nov-12 10:28N 27°54' W 082°25'0 0.0
2017-Nov-12 09:58N 27°54' W 082°25'0 0.0
2017-Nov-12 09:28N 27°54' W 082°25'0 0.0
2017-Nov-12 08:58N 27°54' W 082°25'0 0.0
2017-Nov-12 08:28N 27°54' W 082°25'0 0.0
2017-Nov-12 07:58N 27°54' W 082°25'0 0.0
2017-Nov-12 07:28N 27°54' W 082°25'0 0.0
2017-Nov-12 06:58N 27°54' W 082°25'0 0.0
2017-Nov-12 06:28N 27°54' W 082°25'0 0.0
2017-Nov-12 05:58N 27°54' W 082°25'0 0.0
2017-Nov-12 05:28N 27°54' W 082°25'0 0.0
2017-Nov-12 04:58N 27°54' W 082°25'0 0.0
2017-Nov-12 04:28N 27°54' W 082°25'0 0.0
2017-Nov-12 03:58N 27°54' W 082°25'0 0.0
2017-Nov-12 03:28N 27°54' W 082°25'0 0.0
2017-Nov-12 02:58N 27°54' W 082°25'0 0.0
2017-Nov-12 02:28N 27°54' W 082°25'0 0.0
2017-Nov-12 01:58N 27°54' W 082°25'0 0.0
2017-Nov-12 01:28N 27°54' W 082°25'0 0.0
2017-Nov-12 00:58N 27°54' W 082°25'0 0.0
2017-Nov-12 00:28N 27°54' W 082°25'0 0.0
2017-Nov-11 23:58N 27°54' W 082°25'0 0.0
2017-Nov-11 23:30N 27°54' W 082°25'1 1.7
2017-Nov-11 23:00N 27°54' W 082°26'1 2.3
2017-Nov-11 22:30N 27°55' W 082°27'2 3.1
2017-Nov-11 22:00N 27°57' W 082°27'0 0.2
2017-Nov-11 21:30N 27°57' W 082°27'0 0.0
2017-Nov-11 20:58N 27°57' W 082°27'0 0.0
2017-Nov-11 20:28N 27°57' W 082°27'0 0.0
2017-Nov-11 19:58N 27°57' W 082°27'0 0.0
2017-Nov-11 19:28N 27°57' W 082°27'0 0.0
2017-Nov-11 18:58N 27°57' W 082°27'0 0.0
2017-Nov-11 18:31N 27°57' W 082°27'0 0.6
2017-Nov-11 18:01N 27°56' W 082°27'2 3.8
2017-Nov-11 17:31N 27°54' W 082°26'4 7.1
2017-Nov-11 17:01N 27°51' W 082°27'4 7.2
2017-Nov-11 16:30N 27°48' W 082°29'4 7.0
2017-Nov-11 16:01N 27°45' W 082°31'  
2017-Nov-07 10:05N 29°09' W 094°22'2 7.4
2017-Nov-07 09:51N 29°08' W 094°20'  

Dump ship's entire track history